Time;durP1;ratioP1;P1;durP2;ratioP2;P2;SDS_P1;SDS_P2;PMS_P1;PMS_P2;Temp;Humidity;BMP_temperature;BMP_pressure;BME280_temperature;BME280_humidity;BME280_pressure;Samples;Min_cycle;Max_cycle;Signal;HPM_P1;HPM_P2
2021/10/16 00:01:29;;;;;;;45.35;20.20;;;;;;;14.47;100.00;99936.09;5031867;28;20415;-66
2021/10/16 00:03:54;;;;;;;50.17;22.58;;;;;;;14.45;100.00;99932.59;5031896;28;20030;-69
2021/10/16 00:06:20;;;;;;;47.65;21.65;;;;;;;14.23;100.00;99908.94;5032067;28;20025;-68
2021/10/16 00:08:46;;;;;;;51.97;21.02;;;;;;;14.43;100.00;99918.72;5032048;28;20103;-66
2021/10/16 00:11:12;;;;;;;42.83;20.80;;;;;;;14.51;100.00;99940.47;5032219;28;20065;-68
2021/10/16 00:13:38;;;;;;;38.33;17.60;;;;;;;14.53;100.00;99944.84;5037549;28;20029;-68
2021/10/16 00:16:05;;;;;;;48.30;19.17;;;;;;;14.54;100.00;99940.50;5032363;28;20074;-70
2021/10/16 00:18:32;;;;;;;38.13;17.95;;;;;;;14.45;100.00;99930.00;5031758;28;20053;-67
2021/10/16 00:21:01;;;;;;;49.72;18.42;;;;;;;14.53;100.00;99941.38;5031105;28;20061;-72
2021/10/16 00:23:27;;;;;;;37.50;16.65;;;;;;;14.50;100.00;99944.78;5031723;28;20033;-67
2021/10/16 00:25:53;;;;;;;36.58;16.20;;;;;;;14.51;100.00;99937.88;5031159;28;20049;-70
2021/10/16 00:28:19;;;;;;;42.28;19.27;;;;;;;14.53;100.00;99937.03;5031458;28;20686;-72
2021/10/16 00:30:44;;;;;;;43.58;19.70;;;;;;;14.51;100.00;99927.50;5031119;28;20037;-69
2021/10/16 00:33:10;;;;;;;40.00;18.95;;;;;;;14.47;100.00;99907.53;5030893;28;20025;-71
2021/10/16 00:35:35;;;;;;;58.08;22.08;;;;;;;14.44;100.00;99904.88;5031961;28;20033;-67
2021/10/16 00:38:01;;;;;;;60.13;24.35;;;;;;;14.47;100.00;99897.16;5046633;28;20025;-69
2021/10/16 00:40:26;;;;;;;34.53;19.95;;;;;;;14.33;100.00;99887.47;5051326;28;20036;-66
2021/10/16 00:42:54;;;;;;;42.33;21.25;;;;;;;14.52;100.00;99904.13;5051020;28;20029;-67
2021/10/16 00:45:22;;;;;;;51.50;23.20;;;;;;;14.53;100.00;99894.63;5051045;28;20032;-67
2021/10/16 00:47:48;;;;;;;38.50;19.98;;;;;;;14.56;100.00;99897.25;5050571;28;20029;-67
2021/10/16 00:50:16;;;;;;;41.95;19.08;;;;;;;14.49;100.00;99887.63;5051047;28;20036;-69
2021/10/16 00:52:42;;;;;;;56.20;21.20;;;;;;;14.57;100.00;99894.66;5033461;28;20028;-68
2021/10/16 00:55:10;;;;;;;43.78;18.70;;;;;;;14.54;100.00;99885.94;5051063;28;20028;-71
2021/10/16 00:57:36;;;;;;;43.63;19.42;;;;;;;14.58;100.00;99898.13;5051045;28;20029;-66
2021/10/16 01:00:03;;;;;;;62.67;21.05;;;;;;;14.54;100.00;99888.53;5051207;28;20578;-69
2021/10/16 01:02:29;;;;;;;50.65;20.92;;;;;;;14.48;100.00;99860.78;5050873;28;20021;-67
2021/10/16 01:04:55;;;;;;;49.25;21.60;;;;;;;14.52;100.00;99866.91;5015919;28;20037;-68
2021/10/16 01:07:20;;;;;;;41.33;19.08;;;;;;;14.67;100.00;99884.41;5050787;28;20024;-68
2021/10/16 01:09:47;;;;;;;40.38;20.63;;;;;;;14.66;100.00;99882.66;5050585;28;20086;-72
2021/10/16 01:12:13;;;;;;;42.08;18.98;;;;;;;14.51;100.00;99855.63;5051050;28;20056;-67
2021/10/16 01:15:02;;;;;;;45.58;19.15;;;;;;;14.63;100.00;99870.47;5050658;28;20155;-69
2021/10/16 01:17:28;;;;;;;;;;;;;;;14.62;100.00;99870.47;5051101;28;20112;-68
2021/10/16 01:19:57;;;;;;;52.88;20.30;;;;;;;14.61;100.00;99872.19;5051396;28;19959;-68
2021/10/16 01:22:23;;;;;;;45.85;23.17;;;;;;;14.62;100.00;99868.72;5050899;28;20029;-72
2021/10/16 01:24:51;;;;;;;55.22;22.35;;;;;;;14.60;100.00;99865.25;5051217;28;20030;-66
2021/10/16 01:27:18;;;;;;;46.35;21.17;;;;;;;14.46;100.00;99854.69;5050456;28;20060;-70
2021/10/16 01:29:45;;;;;;;53.08;23.02;;;;;;;14.50;100.00;99853.00;5050833;28;20021;-67
2021/10/16 01:32:10;;;;;;;42.03;21.88;;;;;;;14.52;100.00;99853.91;5051056;28;20029;-68
2021/10/16 01:34:36;;;;;;;50.88;21.48;;;;;;;14.60;100.00;99854.84;5049954;28;20021;-68
2021/10/16 01:37:01;;;;;;;36.78;18.95;;;;;;;14.55;100.00;99853.94;5037344;28;20028;-68
2021/10/16 01:39:29;;;;;;;50.85;22.23;;;;;;;14.59;100.00;99860.88;5015449;28;20143;-71
2021/10/16 01:41:55;;;;;;;65.25;23.85;;;;;;;14.56;100.00;99853.94;5043294;28;20102;-68
2021/10/16 01:44:20;;;;;;;54.78;22.40;;;;;;;14.48;100.00;99832.22;5035415;28;20456;-74
2021/10/16 01:46:46;;;;;;;59.10;23.08;;;;;;;14.46;100.00;99830.47;5018474;28;20389;-74
2021/10/16 01:49:15;;;;;;;63.78;24.13;;;;;;;14.49;100.00;99827.88;5030460;28;20030;-69
2021/10/16 01:51:41;;;;;;;62.80;23.58;;;;;;;14.44;100.00;99822.63;5030497;28;20030;-68
2021/10/16 01:54:07;;;;;;;52.05;22.58;;;;;;;14.59;100.00;99858.28;5030458;28;20411;-65
2021/10/16 01:56:33;;;;;;;54.08;23.85;;;;;;;14.19;100.00;99777.38;5033202;28;20022;-66
2021/10/16 01:59:12;;;;;;;46.53;22.05;;;;;;;14.19;100.00;99782.56;5034269;28;20025;-65
2021/10/16 02:01:37;;;;;;;46.35;20.73;;;;;;;14.53;100.00;99838.34;5039241;28;20053;-71
2021/10/16 02:04:03;;;;;;;42.38;19.42;;;;;;;14.44;100.00;99833.03;5032422;28;20123;-68
2021/10/16 02:06:28;;;;;;;42.65;20.65;;;;;;;14.55;100.00;99846.13;5034012;28;20026;-67
2021/10/16 02:08:54;;;;;;;56.30;22.33;;;;;;;14.53;100.00;99847.88;5033559;28;20494;-67
2021/10/16 02:11:19;;;;;;;56.88;22.45;;;;;;;14.20;100.00;99797.28;5033945;28;20029;-68
2021/10/16 02:13:45;;;;;;;52.70;21.67;;;;;;;14.18;100.00;99806.78;5034277;28;20096;-68
2021/10/16 02:16:10;;;;;;;52.72;22.73;;;;;;;14.42;100.00;99836.47;5034567;28;20035;-65
2021/10/16 02:18:35;;;;;;;54.92;20.80;;;;;;;14.08;100.00;99788.50;5033787;28;20029;-69
2021/10/16 02:21:01;;;;;;;55.95;22.27;;;;;;;14.08;100.00;99783.31;5033943;28;20022;-72
2021/10/16 02:23:26;;;;;;;64.68;21.38;;;;;;;14.38;100.00;99828.66;5033654;28;20065;-68
2021/10/16 02:25:52;;;;;;;57.05;18.85;;;;;;;14.15;100.00;99784.25;5033907;28;20046;-69
2021/10/16 02:28:18;;;;;;;55.20;20.75;;;;;;;14.47;100.00;99846.06;5039047;28;20043;-68
2021/10/16 02:30:44;;;;;;;60.95;20.33;;;;;;;14.51;100.00;99845.22;5043417;28;20028;-72
2021/10/16 02:33:09;;;;;;;53.05;21.65;;;;;;;14.58;100.00;99856.56;5016336;28;20045;-68
2021/10/16 02:35:35;;;;;;;61.33;22.92;;;;;;;14.62;100.00;99847.09;5033469;28;20035;-67
2021/10/16 02:38:00;;;;;;;64.90;22.73;;;;;;;14.64;100.00;99853.16;5037084;28;20030;-73
2021/10/16 02:40:26;;;;;;;60.15;22.45;;;;;;;14.51;100.00;99829.66;5053701;28;20028;-67
2021/10/16 02:42:51;;;;;;;55.80;23.00;;;;;;;14.43;100.00;99820.91;5053930;28;20028;-71
2021/10/16 02:45:18;;;;;;;45.72;23.45;;;;;;;13.80;100.00;99719.00;5053312;28;20025;-68
2021/10/16 02:47:45;;;;;;;63.58;23.95;;;;;;;14.10;100.00;99759.97;5053797;28;20028;-68
2021/10/16 02:50:11;;;;;;;67.25;24.00;;;;;;;14.65;100.00;99845.41;5052890;28;20025;-66
2021/10/16 02:52:37;;;;;;;54.40;22.15;;;;;;;14.68;100.00;99847.19;5053126;28;20021;-68
2021/10/16 02:55:02;;;;;;;59.42;19.85;;;;;;;14.71;100.00;99847.22;5052938;28;20047;-66
2021/10/16 02:57:28;;;;;;;59.95;19.75;;;;;;;14.56;100.00;99824.50;5053655;28;20021;-71
2021/10/16 02:59:53;;;;;;;52.33;18.73;;;;;;;14.71;100.00;99847.22;5053635;28;20437;-66
2021/10/16 03:02:19;;;;;;;59.53;16.98;;;;;;;14.59;100.00;99826.25;5035343;28;20021;-68
2021/10/16 03:04:44;;;;;;;58.45;19.25;;;;;;;14.70;100.00;99854.16;5019230;28;20471;-67
2021/10/16 03:07:10;;;;;;;49.80;17.83;;;;;;;14.71;100.00;99855.84;5052578;28;20036;-71
2021/10/16 03:09:35;;;;;;;53.83;17.65;;;;;;;14.75;100.00;99850.72;5053059;28;20051;-69
2021/10/16 03:12:01;;;;;;;47.72;17.83;;;;;;;14.75;100.00;99859.38;5052812;28;20028;-67
2021/10/16 03:14:26;;;;;;;46.15;16.33;;;;;;;14.72;100.00;99860.22;5052651;28;20032;-67
2021/10/16 03:16:51;;;;;;;49.78;16.63;;;;;;;14.76;100.00;99855.91;5051918;28;20403;-68
2021/10/16 03:19:17;;;;;;;38.28;16.23;;;;;;;14.75;100.00;99858.50;5053175;28;20017;-69
2021/10/16 03:21:42;;;;;;;27.63;14.77;;;;;;;14.80;100.00;99864.63;5052885;28;20082;-64
2021/10/16 03:24:08;;;;;;;25.42;14.95;;;;;;;14.45;100.00;99826.13;5052444;28;20098;-66
2021/10/16 03:26:33;;;;;;;36.38;17.27;;;;;;;14.75;100.00;99868.91;5052912;28;20045;-67
2021/10/16 03:28:59;;;;;;;25.70;15.13;;;;;;;14.65;100.00;99866.19;5052626;28;20442;-69
2021/10/16 03:31:24;;;;;;;24.60;15.57;;;;;;;14.59;100.00;99854.84;5052590;28;20029;-68
2021/10/16 03:33:49;;;;;;;24.33;14.82;;;;;;;14.67;100.00;99866.22;5052596;28;20021;-69
2021/10/16 03:36:15;;;;;;;22.33;15.05;;;;;;;14.63;100.00;99862.69;5038342;28;20029;-66
2021/10/16 03:38:40;;;;;;;22.58;14.48;;;;;;;14.64;100.00;99869.63;5034338;28;20018;-71
2021/10/16 03:41:06;;;;;;;23.83;14.85;;;;;;;14.63;100.00;99867.88;5052637;28;20402;-68
2021/10/16 03:43:31;;;;;;;20.55;16.25;;;;;;;14.12;100.00;99783.34;5052615;28;20025;-70
2021/10/16 03:45:57;;;;;;;21.52;15.45;;;;;;;14.61;100.00;99868.72;5053000;28;20053;-68
2021/10/16 03:48:22;;;;;;;21.67;15.38;;;;;;;14.64;100.00;99855.75;5052639;28;20097;-70
2021/10/16 03:50:48;;;;;;;20.00;15.50;;;;;;;14.56;100.00;99845.28;5052395;28;20063;-68
2021/10/16 03:53:13;;;;;;;19.42;13.98;;;;;;;14.44;100.00;99820.03;5051983;28;20036;-69
2021/10/16 03:55:38;;;;;;;21.70;15.20;;;;;;;14.55;100.00;99844.44;5047446;28;20017;-67
2021/10/16 03:58:04;;;;;;;21.52;14.95;;;;;;;14.35;100.00;99813.03;5052409;28;20033;-68
2021/10/16 04:00:29;;;;;;;23.77;15.43;;;;;;;14.63;100.00;99844.50;5052056;28;20027;-67
2021/10/16 04:02:59;;;;;;;20.45;14.30;;;;;;;14.08;100.00;99752.19;5052603;28;20032;-68
2021/10/16 04:05:25;;;;;;;21.25;14.23;;;;;;;14.27;100.00;99774.84;5051178;28;20029;-67
2021/10/16 04:07:50;;;;;;;22.80;14.63;;;;;;;14.61;100.00;99835.81;5033958;28;20495;-68
2021/10/16 04:10:16;;;;;;;21.65;14.60;;;;;;;14.63;100.00;99825.44;5052054;28;20029;-67
2021/10/16 04:12:42;;;;;;;19.75;14.23;;;;;;;14.61;100.00;99816.78;5052247;28;20522;-68
2021/10/16 04:15:08;;;;;;;22.13;14.85;;;;;;;14.63;100.00;99813.34;5051678;28;20482;-68
2021/10/16 04:17:34;;;;;;;18.48;12.73;;;;;;;14.63;100.00;99812.44;5051251;28;20075;-66
2021/10/16 04:19:59;;;;;;;17.20;14.40;;;;;;;14.63;100.00;99818.53;5052074;28;20032;-67
2021/10/16 04:22:25;;;;;;;20.23;14.38;;;;;;;14.60;100.00;99823.69;5051396;28;20029;-68
2021/10/16 04:24:51;;;;;;;18.80;14.38;;;;;;;14.59;100.00;99828.88;5051633;28;20040;-68
2021/10/16 04:27:16;;;;;;;20.73;15.60;;;;;;;14.50;100.00;99822.69;5051672;28;20045;-69
2021/10/16 04:29:42;;;;;;;21.95;15.00;;;;;;;14.47;100.00;99822.69;5051685;28;20028;-70
2021/10/16 04:32:07;;;;;;;22.38;16.05;;;;;;;14.47;100.00;99820.09;5042845;28;20031;-64
2021/10/16 04:34:33;;;;;;;19.40;14.93;;;;;;;14.45;100.00;99819.19;5037797;28;20115;-71
2021/10/16 04:36:58;;;;;;;20.60;15.95;;;;;;;14.41;100.00;99820.03;5048562;28;20032;-71
2021/10/16 04:39:27;;;;;;;22.80;15.75;;;;;;;14.34;100.00;99790.53;5031951;28;20023;-71
2021/10/16 04:41:52;;;;;;;22.88;15.85;;;;;;;14.54;100.00;99808.03;5049624;28;20028;-65
2021/10/16 04:44:18;;;;;;;20.70;15.50;;;;;;;14.05;100.00;99744.34;5050433;28;20509;-69
2021/10/16 04:46:43;;;;;;;19.60;14.88;;;;;;;14.47;100.00;99801.06;5048027;28;20120;-71
2021/10/16 04:49:09;;;;;;;22.27;15.25;;;;;;;14.61;100.00;99833.22;5042382;28;20053;-68
2021/10/16 04:51:35;;;;;;;21.05;15.65;;;;;;;14.60;100.00;99822.81;5030752;28;20061;-69
2021/10/16 04:54:00;;;;;;;22.25;15.43;;;;;;;14.67;100.00;99835.91;5018695;28;20033;-69
2021/10/16 04:56:26;;;;;;;23.27;15.55;;;;;;;14.69;100.00;99834.22;5031499;28;20033;-70
2021/10/16 04:58:51;;;;;;;21.15;15.90;;;;;;;14.67;100.00;99835.91;5035282;28;20040;-67
2021/10/16 05:01:18;;;;;;;18.60;15.15;;;;;;;14.69;100.00;99851.50;5037811;28;20501;-68
2021/10/16 05:03:43;;;;;;;18.70;14.75;;;;;;;14.56;100.00;99830.56;5027099;28;20059;-70
2021/10/16 05:06:09;;;;;;;20.13;15.32;;;;;;;14.70;100.00;99858.44;5039919;28;20033;-69
2021/10/16 05:08:37;;;;;;;19.05;14.60;;;;;;;14.71;100.00;99862.78;5031073;28;20026;-70
2021/10/16 05:11:03;;;;;;;21.58;15.60;;;;;;;14.72;100.00;99862.81;5031051;28;20104;-68
2021/10/16 05:13:28;;;;;;;22.73;15.63;;;;;;;14.48;100.00;99824.44;5032160;28;20109;-71
2021/10/16 05:15:54;;;;;;;22.60;14.52;;;;;;;14.75;100.00;99868.91;5031153;28;20109;-68
2021/10/16 05:18:22;;;;;;;21.30;15.10;;;;;;;14.71;100.00;99873.19;5031353;28;20441;-66
2021/10/16 05:20:51;;;;;;;23.25;16.73;;;;;;;14.65;100.00;99878.31;5031044;28;20026;-65
2021/10/16 05:23:16;;;;;;;18.42;15.57;;;;;;;14.64;100.00;99885.22;5031362;28;20036;-68
2021/10/16 05:25:43;;;;;;;18.13;12.45;;;;;;;14.37;100.00;99881.44;5031035;28;20054;-68
2021/10/16 05:28:10;;;;;;;19.45;13.32;;;;;;;14.07;100.00;99854.25;5031407;28;20038;-69
2021/10/16 05:30:35;;;;;;;19.77;13.82;;;;;;;14.24;100.00;99892.53;5032990;28;20037;-69
2021/10/16 05:33:01;;;;;;;17.38;13.05;;;;;;;14.24;100.00;99908.09;5035288;28;20037;-69
2021/10/16 05:35:26;;;;;;;19.55;13.57;;;;;;;14.25;100.00;99904.66;5035075;28;20076;-69
2021/10/16 05:37:52;;;;;;;17.75;12.25;;;;;;;13.65;100.00;99824.28;5048970;28;20024;-71
2021/10/16 05:40:18;;;;;;;20.25;13.77;;;;;;;13.60;100.00;99825.94;5055012;28;20417;-67
2021/10/16 05:42:44;;;;;;;17.20;12.80;;;;;;;14.12;100.00;99913.13;5055496;28;20568;-69
2021/10/16 05:45:10;;;;;;;18.00;13.25;;;;;;;14.07;100.00;99893.19;5055159;28;20384;-67
2021/10/16 05:47:37;;;;;;;19.48;13.00;;;;;;;14.26;100.00;99919.38;5054973;28;20082;-67
2021/10/16 05:50:06;;;;;;;19.42;13.55;;;;;;;14.27;100.00;99923.72;5054470;28;20040;-67
2021/10/16 05:52:31;;;;;;;16.38;13.35;;;;;;;14.33;100.00;99934.19;5054962;28;20021;-70
2021/10/16 05:54:57;;;;;;;16.70;12.68;;;;;;;14.42;100.00;99932.56;5054812;28;20059;-67
2021/10/16 05:57:22;;;;;;;17.38;13.02;;;;;;;14.54;100.00;99928.41;5054677;28;20021;-69
2021/10/16 05:59:48;;;;;;;37.17;27.75;;;;;;;14.67;100.00;99931.19;5054568;28;20025;-70
2021/10/16 06:02:13;;;;;;;23.45;19.00;;;;;;;14.65;100.00;99920.75;5019104;28;20060;-67
2021/10/16 06:04:39;;;;;;;54.97;36.80;;;;;;;14.69;100.00;99932.03;5054764;28;20383;-70
2021/10/16 06:07:04;;;;;;;36.83;29.50;;;;;;;13.97;100.00;99802.19;5054428;28;20025;-69
2021/10/16 06:09:30;;;;;;;31.88;23.42;;;;;;;14.75;100.00;99942.50;5054283;28;20060;-67
2021/10/16 06:11:55;;;;;;;22.05;19.05;;;;;;;14.76;100.00;99933.88;5054483;28;20032;-71
2021/10/16 06:14:21;;;;;;;19.70;14.35;;;;;;;14.22;100.00;99865.69;5054905;28;20042;-69
2021/10/16 06:16:46;;;;;;;18.42;13.43;;;;;;;14.17;100.00;99886.38;5036493;28;20486;-67
2021/10/16 06:19:11;;;;;;;16.30;10.73;;;;;;;14.62;100.00;99949.28;5053865;28;20025;-68
2021/10/16 06:21:37;;;;;;;17.58;11.70;;;;;;;14.72;100.00;99953.75;5054130;28;20108;-69
2021/10/16 06:24:03;;;;;;;11.75;10.02;;;;;;;14.76;100.00;99949.47;5054418;28;20033;-69
2021/10/16 06:26:29;;;;;;;15.13;11.02;;;;;;;14.80;100.00;99951.22;5054411;28;20107;-68
2021/10/16 06:28:54;;;;;;;16.80;11.52;;;;;;;14.77;100.00;99947.75;5053871;28;20035;-73
2021/10/16 06:31:20;;;;;;;15.32;11.68;;;;;;;14.83;100.00;99958.22;5053981;28;20039;-70
2021/10/16 06:33:46;;;;;;;14.80;12.95;;;;;;;14.87;100.00;99959.97;5054102;28;20055;-70
2021/10/16 06:36:11;;;;;;;22.60;17.15;;;;;;;14.92;100.00;99973.91;5040076;28;20095;-68
2021/10/16 06:38:36;;;;;;;23.38;18.20;;;;;;;14.94;100.00;99966.09;5053669;28;20386;-66
2021/10/16 06:41:02;;;;;;;22.77;17.05;;;;;;;14.76;100.00;99954.66;5053337;28;20471;-71
2021/10/16 06:43:28;;;;;;;26.55;20.42;;;;;;;14.87;100.00;99971.25;5034997;28;20478;-68
2021/10/16 06:45:54;;;;;;;36.15;28.55;;;;;;;14.61;100.00;99960.50;5053596;28;20029;-73
2021/10/16 06:48:19;;;;;;;13.55;11.95;;;;;;;14.53;100.00;99981.19;5053374;28;20509;-71
2021/10/16 06:50:45;;;;;;;13.80;12.40;;;;;;;14.31;100.00;99986.97;5053613;28;20029;-68
2021/10/16 06:53:10;;;;;;;15.68;12.88;;;;;;;13.83;100.00;99923.97;5053693;28;20021;-69
2021/10/16 06:55:36;;;;;;;14.32;12.85;;;;;;;13.93;100.00;99959.56;5053450;28;20024;-72
2021/10/16 06:58:01;;;;;;;15.07;13.13;;;;;;;13.95;100.00;99972.59;5053366;28;20100;-69
2021/10/16 07:00:27;;;;;;;15.55;13.93;;;;;;;13.82;100.00;99962.03;5053481;28;20028;-68
2021/10/16 07:02:53;;;;;;;15.52;13.07;;;;;;;13.80;100.00;99975.84;5053464;28;20047;-65
2021/10/16 07:05:19;;;;;;;16.25;14.55;;;;;;;13.93;100.00;99987.25;5053219;28;20021;-67
2021/10/16 07:07:44;;;;;;;14.10;12.55;;;;;;;13.96;100.00;99995.97;5053508;28;20025;-69
2021/10/16 07:10:10;;;;;;;14.43;12.00;;;;;;;13.95;100.00;100004.59;5035611;28;20120;-68
2021/10/16 07:12:36;;;;;;;14.05;10.55;;;;;;;13.95;100.00;100003.75;5053337;28;20083;-69
2021/10/16 07:15:04;;;;;;;15.13;11.63;;;;;;;13.81;100.00;99981.03;5053371;28;20134;-69
2021/10/16 07:17:29;;;;;;;13.07;11.77;;;;;;;13.87;100.00;99986.31;5052786;28;20399;-70
2021/10/16 07:19:55;;;;;;;12.93;11.18;;;;;;;13.82;100.00;99981.91;5053246;28;20025;-72
2021/10/16 07:22:22;;;;;;;11.82;10.30;;;;;;;13.99;100.00;100011.56;5053073;28;20395;-70
2021/10/16 07:24:48;;;;;;;14.50;10.40;;;;;;;14.02;100.00;100000.41;5053515;28;20397;-68
2021/10/16 07:27:15;;;;;;;11.88;9.52;;;;;;;13.91;100.00;99987.25;5052524;28;20048;-71
2021/10/16 07:29:41;;;;;;;12.27;10.50;;;;;;;13.99;100.00;100013.31;5034982;28;20040;-67
2021/10/16 07:32:07;;;;;;;11.57;9.25;;;;;;;13.94;100.00;99996.81;5052762;28;20035;-65
2021/10/16 07:34:33;;;;;;;13.70;9.10;;;;;;;13.73;100.00;99964.47;5052411;28;20104;-68
2021/10/16 07:36:58;;;;;;;9.88;7.80;;;;;;;13.58;100.00;99945.22;5039289;28;20029;-66
2021/10/16 07:39:24;;;;;;;10.30;8.15;;;;;;;13.92;100.00;100009.75;5052800;28;20060;-69
2021/10/16 07:41:49;;;;;;;10.85;9.00;;;;;;;13.86;100.00;99991.50;5052631;28;20040;-67
2021/10/16 07:44:16;;;;;;;9.68;7.57;;;;;;;13.92;100.00;100014.94;5052903;28;20120;-67
2021/10/16 07:46:43;;;;;;;12.25;8.95;;;;;;;13.87;100.00;100006.22;5052907;28;20028;-67
2021/10/16 07:49:10;;;;;;;10.40;8.45;;;;;;;13.81;100.00;99987.97;5053019;28;20040;-66
2021/10/16 07:51:35;;;;;;;11.13;8.57;;;;;;;13.55;100.00;99945.16;5052321;28;20505;-67
2021/10/16 07:54:01;;;;;;;11.70;8.38;;;;;;;13.86;100.00;99994.09;5052009;28;20112;-67
2021/10/16 07:56:27;;;;;;;9.07;7.03;;;;;;;13.96;100.00;100016.72;5052565;28;20083;-65
2021/10/16 07:58:52;;;;;;;8.93;6.90;;;;;;;13.84;100.00;100004.41;5051976;28;20036;-67
2021/10/16 08:01:17;;;;;;;9.48;7.88;;;;;;;13.97;100.00;100021.09;5023544;28;20137;-67
2021/10/16 08:03:43;;;;;;;9.40;7.47;;;;;;;13.78;100.00;99974.91;5049225;28;20450;-69
2021/10/16 08:06:08;;;;;;;8.70;7.75;;;;;;;14.04;100.00;100016.84;5052604;28;20025;-70
2021/10/16 08:08:34;;;;;;;10.13;7.70;;;;;;;14.12;100.00;100036.03;5003383;28;20033;-70
2021/10/16 08:11:00;;;;;;;9.90;8.48;;;;;;;13.81;100.00;99969.81;5052582;28;20087;-69
2021/10/16 08:13:28;;;;;;;9.98;8.35;;;;;;;14.21;100.00;100027.50;5052381;28;20017;-69
2021/10/16 08:15:54;;;;;;;9.40;7.43;;;;;;;14.08;100.00;100010.84;5052365;28;20021;-69
2021/10/16 08:18:19;;;;;;;11.85;7.95;;;;;;;14.06;100.00;100010.81;5051417;28;20461;-68
2021/10/16 08:20:46;;;;;;;14.10;10.10;;;;;;;13.50;100.00;99896.69;5051586;28;20029;-67
2021/10/16 08:23:11;;;;;;;11.02;8.65;;;;;;;14.40;100.00;100041.63;5052192;28;20025;-69
2021/10/16 08:25:37;;;;;;;12.18;7.60;;;;;;;14.32;100.00;100025.94;5051574;28;20037;-69
2021/10/16 08:28:07;;;;;;;9.93;7.35;;;;;;;14.48;100.00;100041.72;5052188;28;20031;-69
2021/10/16 08:30:32;;;;;;;;;;;;;;;14.57;100.00;100052.25;5052509;28;20414;-68
2021/10/16 08:32:58;;;;;;;14.52;10.60;;;;;;;14.60;100.00;100041.88;5051985;28;19913;-69
2021/10/16 08:35:23;;;;;;;12.20;9.18;;;;;;;14.69;100.00;100048.97;5051938;28;20104;-69
2021/10/16 08:37:49;;;;;;;13.20;9.48;;;;;;;14.48;100.00;100008.84;5052058;28;20540;-69
2021/10/16 08:40:14;;;;;;;10.65;9.25;;;;;;;14.64;100.00;100035.00;5052072;28;20036;-69
2021/10/16 08:42:41;;;;;;;12.77;10.23;;;;;;;14.70;100.00;100033.41;5051578;28;20507;-69
2021/10/16 08:45:09;;;;;;;10.95;8.75;;;;;;;14.82;100.00;100050.03;5052013;28;20040;-69
2021/10/16 08:47:37;;;;;;;11.75;8.65;;;;;;;14.87;100.00;100057.00;5051805;28;20036;-69
2021/10/16 08:50:09;;;;;;;11.20;8.65;;;;;;;14.95;100.00;100057.09;5051957;28;20084;-69
2021/10/16 08:52:36;;;;;;;10.25;8.45;;;;;;;15.01;100.00;100057.16;5051583;28;20040;-69
2021/10/16 08:55:02;;;;;;;10.25;8.55;;;;;;;15.07;100.00;100063.31;5051287;28;20035;-67
2021/10/16 08:57:32;;;;;;;11.70;7.88;;;;;;;14.56;100.00;99988.16;5051425;28;20058;-69
2021/10/16 08:59:58;;;;;;;10.30;8.52;;;;;;;14.90;100.00;100048.38;5051743;28;20021;-69
2021/10/16 09:02:35;;;;;;;11.60;9.85;;;;;;;15.00;100.00;100060.66;5051602;28;20509;-69
2021/10/16 09:05:14;;;;;;;10.10;7.93;;;;;;;15.04;100.00;100062.41;5051527;28;20075;-69
2021/10/16 09:07:39;;;;;;;13.27;8.68;;;;;;;15.06;100.00;100059.84;5051488;28;20479;-68
2021/10/16 09:10:22;;;;;;;12.77;9.63;;;;;;;15.05;100.00;100060.69;5051565;28;20029;-69
2021/10/16 09:12:48;;;;;;;12.32;9.90;;;;;;;15.09;100.00;100069.41;5016754;28;20083;-68
2021/10/16 09:15:23;;;;;;;10.20;7.60;;;;;;;15.04;100.00;100067.63;5051424;28;20414;-68
2021/10/16 09:18:17;;;;;;;8.80;7.20;;;;;;;15.03;100.00;100073.66;5051587;28;20403;-69
2021/10/16 09:20:43;;;;;;;7.90;6.03;;;;;;;14.85;100.00;100065.63;4951098;29;20061;-69
2021/10/16 09:23:10;;;;;;;7.50;5.80;;;;;;;14.95;100.00;100077.03;4951290;28;20046;-69
2021/10/16 09:25:35;;;;;;;7.22;4.80;;;;;;;14.69;100.00;100046.38;4950858;28;20589;-69
2021/10/16 09:28:19;;;;;;;7.47;5.63;;;;;;;14.88;100.00;100073.50;4951161;28;20039;-69
2021/10/16 09:30:45;;;;;;;10.15;5.35;;;;;;;14.89;100.00;100080.41;4950918;29;20034;-68
2021/10/16 09:33:11;;;;;;;6.82;5.35;;;;;;;14.91;100.00;100089.09;4951078;28;20113;-69
2021/10/16 09:35:36;;;;;;;28.40;18.95;;;;;;;14.93;100.00;100090.00;4951136;28;20486;-69
2021/10/16 09:38:01;;;;;;;38.83;28.90;;;;;;;14.53;100.00;100079.03;4951035;28;20494;-69
2021/10/16 09:40:37;;;;;;;46.67;32.72;;;;;;;14.46;100.00;100096.25;4951204;28;20506;-69
2021/10/16 09:43:23;;;;;;;66.45;42.92;;;;;;;14.34;100.00;100096.94;4950852;28;20038;-69
2021/10/16 09:46:12;;;;;;;56.15;36.70;;;;;;;14.20;100.00;100101.91;4950641;28;20464;-68
2021/10/16 09:48:38;;;;;;;86.35;58.05;;;;;;;13.98;100.00;100108.47;4943701;29;20032;-69
2021/10/16 09:51:03;;;;;;;82.72;57.42;;;;;;;13.93;100.00;100107.50;4940277;29;20494;-69
2021/10/16 09:53:30;;;;;;;68.75;46.83;;;;;;;13.81;100.00;100086.56;4931505;29;20528;-69
2021/10/16 09:55:56;;;;;;;48.97;35.65;;;;;;;13.68;100.00;100073.38;4915766;29;20042;-69
2021/10/16 09:58:23;;;;;;;40.70;32.08;;;;;;;13.96;100.00;100099.78;5007087;28;20034;-70
2021/10/16 10:00:52;;;;;;;37.97;26.70;;;;;;;13.93;100.00;100109.22;5021715;28;20133;-68
2021/10/16 10:03:22;;;;;;;31.25;25.13;;;;;;;13.92;100.00;100103.19;5022130;28;20037;-68
2021/10/16 10:05:49;;;;;;;41.78;32.67;;;;;;;13.96;100.00;100102.38;5025556;28;20080;-68
2021/10/16 10:08:18;;;;;;;23.25;20.30;;;;;;;14.00;100.00;100101.56;5026030;28;20049;-68
2021/10/16 10:10:44;;;;;;;18.23;16.35;;;;;;;13.49;100.00;100024.59;5023761;28;20022;-67
2021/10/16 10:13:10;;;;;;;17.67;15.77;;;;;;;13.89;100.00;100105.72;5003043;28;20405;-68
2021/10/16 10:15:36;;;;;;;16.23;12.93;;;;;;;13.88;100.00;100115.22;5021569;28;20036;-68
2021/10/16 10:18:59;;;;;;;23.70;19.40;;;;;;;13.90;100.00;100112.66;5024699;28;20030;-68
2021/10/16 10:20:50;;;;;;;17.75;14.48;;;;;;;13.58;100.00;100055.88;5023269;28;20029;-72
2021/10/16 10:23:20;;;;;;;16.65;14.90;;;;;;;13.89;100.00;100087.53;5023462;28;20420;-68
2021/10/16 10:25:46;;;;;;;14.43;12.93;;;;;;;14.02;100.00;100119.78;5029955;28;20025;-68
2021/10/16 10:28:11;;;;;;;12.90;10.85;;;;;;;14.06;100.00;100106.00;5053028;28;20048;-68
2021/10/16 10:30:41;;;;;;;12.68;11.30;;;;;;;14.18;100.00;100120.91;5046244;28;20025;-68
2021/10/16 10:33:16;;;;;;;15.68;11.75;;;;;;;14.23;100.00;100111.47;5044655;28;20017;-70
2021/10/16 10:36:01;;;;;;;16.88;11.55;;;;;;;14.33;100.00;100110.78;5034286;28;20484;-69
2021/10/16 10:38:32;;;;;;;14.75;12.50;;;;;;;14.31;100.00;100109.88;5032725;28;20025;-68
2021/10/16 10:40:57;;;;;;;15.27;12.27;;;;;;;14.31;100.00;100099.47;5034127;28;20026;-68
2021/10/16 10:43:40;;;;;;;16.35;13.20;;;;;;;14.47;100.00;100105.78;5033958;28;20122;-68
2021/10/16 10:46:12;;;;;;;12.55;11.02;;;;;;;14.52;100.00;100109.31;5034299;28;20033;-68
2021/10/16 10:48:45;;;;;;;18.60;13.23;;;;;;;14.68;100.00;100110.47;5034093;28;20040;-68
2021/10/16 10:51:33;;;;;;;15.93;12.90;;;;;;;14.46;100.00;100040.84;5033959;28;20083;-68
2021/10/16 10:54:13;;;;;;;12.77;10.85;;;;;;;14.78;100.00;100107.97;4998929;28;20037;-69
2021/10/16 10:56:41;;;;;;;17.13;11.55;;;;;;;14.82;100.00;100109.78;5033760;28;20092;-68
2021/10/16 10:59:11;;;;;;;15.52;11.48;;;;;;;14.84;100.00;100110.66;5033965;28;20088;-69
2021/10/16 11:01:50;;;;;;;13.23;10.13;;;;;;;14.91;100.00;100109.91;5033749;28;20028;-68
2021/10/16 11:04:36;;;;;;;13.60;11.13;;;;;;;15.00;100.00;100103.94;5016018;28;20377;-68
2021/10/16 11:07:05;;;;;;;14.23;11.70;;;;;;;14.83;100.00;100104.59;5033816;28;20029;-68
2021/10/16 11:09:32;;;;;;;14.27;12.02;;;;;;;14.65;100.00;100105.22;5033736;28;20087;-68